sensor_id;sensor_type;location;lat;lon;timestamp;P1;durP1;ratioP1;P2;durP2;ratioP2
9438;SDS011;5176;42.622;25.386;2024-01-15T00:02:07;34.23;;;18.83;;
9438;SDS011;5176;42.622;25.386;2024-01-15T00:04:36;33.43;;;19.13;;
9438;SDS011;5176;42.622;25.386;2024-01-15T00:07:04;38.00;;;22.07;;
9438;SDS011;5176;42.622;25.386;2024-01-15T00:09:32;39.70;;;21.93;;
9438;SDS011;5176;42.622;25.386;2024-01-15T00:12:00;40.00;;;23.97;;
9438;SDS011;5176;42.622;25.386;2024-01-15T00:14:28;36.53;;;22.17;;
9438;SDS011;5176;42.622;25.386;2024-01-15T00:16:57;37.17;;;21.27;;
9438;SDS011;5176;42.622;25.386;2024-01-15T00:19:24;34.30;;;20.13;;
9438;SDS011;5176;42.622;25.386;2024-01-15T00:21:52;32.93;;;20.27;;
9438;SDS011;5176;42.622;25.386;2024-01-15T00:24:20;33.60;;;19.10;;
9438;SDS011;5176;42.622;25.386;2024-01-15T00:26:48;33.33;;;18.90;;
9438;SDS011;5176;42.622;25.386;2024-01-15T00:29:15;33.13;;;20.20;;
9438;SDS011;5176;42.622;25.386;2024-01-15T00:31:43;30.50;;;18.83;;
9438;SDS011;5176;42.622;25.386;2024-01-15T00:34:12;31.23;;;18.27;;
9438;SDS011;5176;42.622;25.386;2024-01-15T00:36:39;28.67;;;17.33;;
9438;SDS011;5176;42.622;25.386;2024-01-15T00:39:07;31.10;;;17.77;;
9438;SDS011;5176;42.622;25.386;2024-01-15T00:41:36;28.33;;;16.17;;
9438;SDS011;5176;42.622;25.386;2024-01-15T00:44:03;25.70;;;16.13;;
9438;SDS011;5176;42.622;25.386;2024-01-15T00:46:32;24.27;;;14.67;;
9438;SDS011;5176;42.622;25.386;2024-01-15T00:49:00;23.07;;;14.77;;
9438;SDS011;5176;42.622;25.386;2024-01-15T00:51:30;30.90;;;15.67;;
9438;SDS011;5176;42.622;25.386;2024-01-15T00:53:57;26.37;;;15.67;;
9438;SDS011;5176;42.622;25.386;2024-01-15T00:56:25;29.63;;;16.80;;
9438;SDS011;5176;42.622;25.386;2024-01-15T00:58:52;28.03;;;16.63;;
9438;SDS011;5176;42.622;25.386;2024-01-15T01:01:20;27.60;;;15.93;;
9438;SDS011;5176;42.622;25.386;2024-01-15T01:03:47;31.80;;;17.40;;
9438;SDS011;5176;42.622;25.386;2024-01-15T01:06:15;30.83;;;17.10;;
9438;SDS011;5176;42.622;25.386;2024-01-15T01:08:44;26.50;;;16.13;;
9438;SDS011;5176;42.622;25.386;2024-01-15T01:11:12;24.90;;;15.80;;
9438;SDS011;5176;42.622;25.386;2024-01-15T01:13:40;27.17;;;15.40;;
9438;SDS011;5176;42.622;25.386;2024-01-15T01:16:08;26.03;;;16.23;;
9438;SDS011;5176;42.622;25.386;2024-01-15T01:18:35;30.10;;;16.87;;
9438;SDS011;5176;42.622;25.386;2024-01-15T01:21:03;31.27;;;17.43;;
9438;SDS011;5176;42.622;25.386;2024-01-15T01:23:30;30.10;;;18.23;;
9438;SDS011;5176;42.622;25.386;2024-01-15T01:25:59;28.33;;;17.50;;
9438;SDS011;5176;42.622;25.386;2024-01-15T01:28:27;25.27;;;16.43;;
9438;SDS011;5176;42.622;25.386;2024-01-15T01:30:55;40.40;;;19.53;;
9438;SDS011;5176;42.622;25.386;2024-01-15T01:33:22;35.43;;;17.00;;
9438;SDS011;5176;42.622;25.386;2024-01-15T01:35:50;29.30;;;17.17;;
9438;SDS011;5176;42.622;25.386;2024-01-15T01:38:17;31.80;;;16.10;;
9438;SDS011;5176;42.622;25.386;2024-01-15T01:40:45;25.60;;;16.47;;
9438;SDS011;5176;42.622;25.386;2024-01-15T01:43:14;27.40;;;15.40;;
9438;SDS011;5176;42.622;25.386;2024-01-15T01:45:41;25.30;;;16.03;;
9438;SDS011;5176;42.622;25.386;2024-01-15T01:48:09;26.67;;;15.37;;
9438;SDS011;5176;42.622;25.386;2024-01-15T01:50:37;27.77;;;16.83;;
9438;SDS011;5176;42.622;25.386;2024-01-15T01:53:04;30.90;;;17.43;;
9438;SDS011;5176;42.622;25.386;2024-01-15T01:55:32;33.50;;;16.93;;
9438;SDS011;5176;42.622;25.386;2024-01-15T01:58:01;31.37;;;18.53;;
9438;SDS011;5176;42.622;25.386;2024-01-15T02:00:32;33.73;;;19.60;;
9438;SDS011;5176;42.622;25.386;2024-01-15T02:03:00;27.90;;;17.13;;
9438;SDS011;5176;42.622;25.386;2024-01-15T02:05:30;28.27;;;16.50;;
9438;SDS011;5176;42.622;25.386;2024-01-15T02:07:58;28.13;;;16.43;;
9438;SDS011;5176;42.622;25.386;2024-01-15T02:10:26;29.13;;;16.47;;
9438;SDS011;5176;42.622;25.386;2024-01-15T02:12:53;28.40;;;16.20;;
9438;SDS011;5176;42.622;25.386;2024-01-15T02:15:21;26.87;;;16.20;;
9438;SDS011;5176;42.622;25.386;2024-01-15T02:18:00;31.37;;;16.63;;
9438;SDS011;5176;42.622;25.386;2024-01-15T02:20:29;24.60;;;15.47;;
9438;SDS011;5176;42.622;25.386;2024-01-15T02:23:09;28.87;;;16.60;;
9438;SDS011;5176;42.622;25.386;2024-01-15T02:25:37;24.20;;;15.53;;
9438;SDS011;5176;42.622;25.386;2024-01-15T02:28:06;35.23;;;20.10;;
9438;SDS011;5176;42.622;25.386;2024-01-15T02:30:37;36.80;;;19.50;;
9438;SDS011;5176;42.622;25.386;2024-01-15T02:33:05;32.43;;;20.00;;
9438;SDS011;5176;42.622;25.386;2024-01-15T02:35:33;31.87;;;19.97;;
9438;SDS011;5176;42.622;25.386;2024-01-15T02:38:02;28.70;;;18.13;;
9438;SDS011;5176;42.622;25.386;2024-01-15T02:40:32;31.37;;;18.23;;
9438;SDS011;5176;42.622;25.386;2024-01-15T02:43:00;29.00;;;17.40;;
9438;SDS011;5176;42.622;25.386;2024-01-15T02:45:28;28.87;;;17.80;;
9438;SDS011;5176;42.622;25.386;2024-01-15T02:47:56;28.57;;;17.10;;
9438;SDS011;5176;42.622;25.386;2024-01-15T02:50:23;34.20;;;19.10;;
9438;SDS011;5176;42.622;25.386;2024-01-15T02:52:51;51.10;;;28.23;;
9438;SDS011;5176;42.622;25.386;2024-01-15T02:55:19;55.70;;;30.63;;
9438;SDS011;5176;42.622;25.386;2024-01-15T02:57:48;64.63;;;37.23;;
9438;SDS011;5176;42.622;25.386;2024-01-15T03:00:16;69.43;;;40.57;;
9438;SDS011;5176;42.622;25.386;2024-01-15T03:02:44;61.83;;;35.87;;
9438;SDS011;5176;42.622;25.386;2024-01-15T03:05:11;66.20;;;35.87;;
9438;SDS011;5176;42.622;25.386;2024-01-15T03:07:39;52.43;;;29.83;;
9438;SDS011;5176;42.622;25.386;2024-01-15T03:10:07;56.90;;;29.33;;
9438;SDS011;5176;42.622;25.386;2024-01-15T03:12:35;53.00;;;28.60;;
9438;SDS011;5176;42.622;25.386;2024-01-15T03:15:05;65.40;;;33.43;;
9438;SDS011;5176;42.622;25.386;2024-01-15T03:17:33;55.50;;;33.20;;
9438;SDS011;5176;42.622;25.386;2024-01-15T03:20:01;46.27;;;28.70;;
9438;SDS011;5176;42.622;25.386;2024-01-15T03:22:29;38.93;;;22.93;;
9438;SDS011;5176;42.622;25.386;2024-01-15T03:24:56;39.80;;;22.60;;
9438;SDS011;5176;42.622;25.386;2024-01-15T03:27:24;41.47;;;22.53;;
9438;SDS011;5176;42.622;25.386;2024-01-15T03:29:52;37.07;;;22.70;;
9438;SDS011;5176;42.622;25.386;2024-01-15T03:32:22;30.87;;;19.80;;
9438;SDS011;5176;42.622;25.386;2024-01-15T03:34:50;30.20;;;19.57;;
9438;SDS011;5176;42.622;25.386;2024-01-15T03:37:17;29.50;;;18.80;;
9438;SDS011;5176;42.622;25.386;2024-01-15T03:39:45;32.43;;;19.70;;
9438;SDS011;5176;42.622;25.386;2024-01-15T03:42:13;33.47;;;20.83;;
9438;SDS011;5176;42.622;25.386;2024-01-15T03:44:41;35.37;;;20.47;;
9438;SDS011;5176;42.622;25.386;2024-01-15T03:47:09;32.50;;;18.93;;
9438;SDS011;5176;42.622;25.386;2024-01-15T03:49:38;35.67;;;19.87;;
9438;SDS011;5176;42.622;25.386;2024-01-15T03:52:05;33.93;;;20.43;;
9438;SDS011;5176;42.622;25.386;2024-01-15T03:54:33;33.57;;;19.27;;
9438;SDS011;5176;42.622;25.386;2024-01-15T03:57:01;33.80;;;20.00;;
9438;SDS011;5176;42.622;25.386;2024-01-15T03:59:28;31.60;;;20.20;;
9438;SDS011;5176;42.622;25.386;2024-01-15T04:01:56;31.50;;;19.90;;
9438;SDS011;5176;42.622;25.386;2024-01-15T04:04:23;34.27;;;20.70;;
9438;SDS011;5176;42.622;25.386;2024-01-15T04:06:52;36.00;;;20.80;;
9438;SDS011;5176;42.622;25.386;2024-01-15T04:09:20;34.03;;;19.53;;
9438;SDS011;5176;42.622;25.386;2024-01-15T04:11:48;35.50;;;19.53;;
9438;SDS011;5176;42.622;25.386;2024-01-15T04:14:15;31.63;;;18.97;;
9438;SDS011;5176;42.622;25.386;2024-01-15T04:16:43;26.63;;;16.23;;
9438;SDS011;5176;42.622;25.386;2024-01-15T04:19:11;27.00;;;16.70;;
9438;SDS011;5176;42.622;25.386;2024-01-15T04:21:38;26.43;;;15.23;;
9438;SDS011;5176;42.622;25.386;2024-01-15T04:24:08;23.90;;;15.03;;
9438;SDS011;5176;42.622;25.386;2024-01-15T04:26:35;22.93;;;15.17;;
9438;SDS011;5176;42.622;25.386;2024-01-15T04:29:03;25.47;;;15.53;;
9438;SDS011;5176;42.622;25.386;2024-01-15T04:31:31;29.00;;;16.57;;
9438;SDS011;5176;42.622;25.386;2024-01-15T04:33:58;26.40;;;16.23;;
9438;SDS011;5176;42.622;25.386;2024-01-15T04:36:26;30.60;;;17.60;;
9438;SDS011;5176;42.622;25.386;2024-01-15T04:38:53;28.23;;;17.47;;
9438;SDS011;5176;42.622;25.386;2024-01-15T04:41:22;26.23;;;16.33;;
9438;SDS011;5176;42.622;25.386;2024-01-15T04:43:50;27.77;;;16.30;;
9438;SDS011;5176;42.622;25.386;2024-01-15T04:46:17;25.13;;;16.27;;
9438;SDS011;5176;42.622;25.386;2024-01-15T04:48:45;30.50;;;17.37;;
9438;SDS011;5176;42.622;25.386;2024-01-15T04:51:13;36.13;;;16.37;;
9438;SDS011;5176;42.622;25.386;2024-01-15T04:53:41;37.80;;;16.60;;
9438;SDS011;5176;42.622;25.386;2024-01-15T04:56:08;25.77;;;15.80;;
9438;SDS011;5176;42.622;25.386;2024-01-15T04:58:37;30.93;;;16.27;;
9438;SDS011;5176;42.622;25.386;2024-01-15T05:01:05;23.73;;;15.23;;
9438;SDS011;5176;42.622;25.386;2024-01-15T05:03:35;31.00;;;17.97;;
9438;SDS011;5176;42.622;25.386;2024-01-15T05:06:03;27.40;;;17.30;;
9438;SDS011;5176;42.622;25.386;2024-01-15T05:08:31;29.77;;;15.80;;
9438;SDS011;5176;42.622;25.386;2024-01-15T05:10:58;32.87;;;20.50;;
9438;SDS011;5176;42.622;25.386;2024-01-15T05:13:26;52.57;;;29.70;;
9438;SDS011;5176;42.622;25.386;2024-01-15T05:15:55;43.97;;;26.97;;
9438;SDS011;5176;42.622;25.386;2024-01-15T05:18:22;49.70;;;28.93;;
9438;SDS011;5176;42.622;25.386;2024-01-15T05:20:50;35.73;;;22.07;;
9438;SDS011;5176;42.622;25.386;2024-01-15T05:23:17;39.47;;;22.40;;
9438;SDS011;5176;42.622;25.386;2024-01-15T05:25:45;40.73;;;24.47;;
9438;SDS011;5176;42.622;25.386;2024-01-15T05:28:13;35.57;;;22.87;;
9438;SDS011;5176;42.622;25.386;2024-01-15T05:30:41;40.03;;;26.00;;
9438;SDS011;5176;42.622;25.386;2024-01-15T05:33:10;42.97;;;25.80;;
9438;SDS011;5176;42.622;25.386;2024-01-15T05:35:37;52.47;;;27.47;;
9438;SDS011;5176;42.622;25.386;2024-01-15T05:38:04;54.70;;;30.67;;
9438;SDS011;5176;42.622;25.386;2024-01-15T05:40:32;33.03;;;20.80;;
9438;SDS011;5176;42.622;25.386;2024-01-15T05:43:00;28.93;;;18.50;;
9438;SDS011;5176;42.622;25.386;2024-01-15T05:45:27;40.17;;;19.67;;
9438;SDS011;5176;42.622;25.386;2024-01-15T05:47:56;33.47;;;19.43;;
9438;SDS011;5176;42.622;25.386;2024-01-15T05:50:25;28.70;;;19.27;;
9438;SDS011;5176;42.622;25.386;2024-01-15T05:52:53;29.73;;;16.97;;
9438;SDS011;5176;42.622;25.386;2024-01-15T05:55:20;34.63;;;19.27;;
9438;SDS011;5176;42.622;25.386;2024-01-15T05:57:48;27.93;;;18.87;;
9438;SDS011;5176;42.622;25.386;2024-01-15T06:00:16;29.17;;;16.17;;
9438;SDS011;5176;42.622;25.386;2024-01-15T06:02:44;29.90;;;17.07;;
9438;SDS011;5176;42.622;25.386;2024-01-15T06:05:11;28.10;;;15.20;;
9438;SDS011;5176;42.622;25.386;2024-01-15T06:07:41;24.03;;;13.77;;
9438;SDS011;5176;42.622;25.386;2024-01-15T06:10:08;23.30;;;13.83;;
9438;SDS011;5176;42.622;25.386;2024-01-15T06:12:36;27.37;;;13.90;;
9438;SDS011;5176;42.622;25.386;2024-01-15T06:15:04;22.80;;;14.33;;
9438;SDS011;5176;42.622;25.386;2024-01-15T06:17:32;19.47;;;11.83;;
9438;SDS011;5176;42.622;25.386;2024-01-15T06:19:59;22.70;;;12.70;;
9438;SDS011;5176;42.622;25.386;2024-01-15T06:22:27;23.17;;;12.43;;
9438;SDS011;5176;42.622;25.386;2024-01-15T06:24:56;21.33;;;12.67;;
9438;SDS011;5176;42.622;25.386;2024-01-15T06:27:24;24.50;;;15.60;;
9438;SDS011;5176;42.622;25.386;2024-01-15T06:29:51;37.17;;;18.20;;
9438;SDS011;5176;42.622;25.386;2024-01-15T06:32:19;39.30;;;22.13;;
9438;SDS011;5176;42.622;25.386;2024-01-15T06:34:46;38.73;;;23.07;;
9438;SDS011;5176;42.622;25.386;2024-01-15T06:37:14;31.47;;;20.13;;
9438;SDS011;5176;42.622;25.386;2024-01-15T06:39:41;40.80;;;21.47;;
9438;SDS011;5176;42.622;25.386;2024-01-15T06:42:10;29.97;;;18.10;;
9438;SDS011;5176;42.622;25.386;2024-01-15T06:44:38;41.50;;;22.30;;
9438;SDS011;5176;42.622;25.386;2024-01-15T06:47:05;69.53;;;27.23;;
9438;SDS011;5176;42.622;25.386;2024-01-15T06:49:33;35.07;;;18.77;;
9438;SDS011;5176;42.622;25.386;2024-01-15T06:52:00;25.77;;;16.03;;
9438;SDS011;5176;42.622;25.386;2024-01-15T06:54:28;30.20;;;18.30;;
9438;SDS011;5176;42.622;25.386;2024-01-15T06:56:55;30.80;;;19.43;;
9438;SDS011;5176;42.622;25.386;2024-01-15T06:59:24;32.50;;;18.23;;
9438;SDS011;5176;42.622;25.386;2024-01-15T07:01:52;44.83;;;22.50;;
9438;SDS011;5176;42.622;25.386;2024-01-15T07:04:20;30.87;;;19.00;;
9438;SDS011;5176;42.622;25.386;2024-01-15T07:06:47;26.83;;;16.37;;
9438;SDS011;5176;42.622;25.386;2024-01-15T07:09:15;26.47;;;16.40;;
9438;SDS011;5176;42.622;25.386;2024-01-15T07:11:44;22.73;;;15.23;;
9438;SDS011;5176;42.622;25.386;2024-01-15T07:14:12;26.80;;;17.40;;
9438;SDS011;5176;42.622;25.386;2024-01-15T07:16:41;29.70;;;18.97;;
9438;SDS011;5176;42.622;25.386;2024-01-15T07:19:08;31.03;;;18.97;;
9438;SDS011;5176;42.622;25.386;2024-01-15T07:21:36;33.70;;;21.17;;
9438;SDS011;5176;42.622;25.386;2024-01-15T07:24:05;27.20;;;16.33;;
9438;SDS011;5176;42.622;25.386;2024-01-15T07:26:32;24.70;;;15.53;;
9438;SDS011;5176;42.622;25.386;2024-01-15T07:29:00;29.77;;;17.40;;
9438;SDS011;5176;42.622;25.386;2024-01-15T07:31:28;24.87;;;14.87;;
9438;SDS011;5176;42.622;25.386;2024-01-15T07:33:57;24.63;;;15.23;;
9438;SDS011;5176;42.622;25.386;2024-01-15T07:36:25;29.03;;;16.73;;
9438;SDS011;5176;42.622;25.386;2024-01-15T07:38:53;26.57;;;14.40;;
9438;SDS011;5176;42.622;25.386;2024-01-15T07:41:20;22.27;;;13.40;;
9438;SDS011;5176;42.622;25.386;2024-01-15T07:43:48;19.77;;;12.67;;
9438;SDS011;5176;42.622;25.386;2024-01-15T07:46:16;20.87;;;13.20;;
9438;SDS011;5176;42.622;25.386;2024-01-15T07:48:43;16.30;;;11.10;;
9438;SDS011;5176;42.622;25.386;2024-01-15T07:51:12;20.03;;;11.97;;
9438;SDS011;5176;42.622;25.386;2024-01-15T07:53:40;21.70;;;13.13;;
9438;SDS011;5176;42.622;25.386;2024-01-15T07:56:07;19.33;;;12.73;;
9438;SDS011;5176;42.622;25.386;2024-01-15T07:58:35;20.83;;;13.23;;
9438;SDS011;5176;42.622;25.386;2024-01-15T08:01:03;23.60;;;14.20;;
9438;SDS011;5176;42.622;25.386;2024-01-15T08:03:31;21.53;;;14.30;;
9438;SDS011;5176;42.622;25.386;2024-01-15T08:05:59;38.17;;;21.60;;
9438;SDS011;5176;42.622;25.386;2024-01-15T08:08:26;34.03;;;21.93;;
9438;SDS011;5176;42.622;25.386;2024-01-15T08:10:54;24.37;;;15.83;;
9438;SDS011;5176;42.622;25.386;2024-01-15T08:13:21;23.03;;;14.27;;
9438;SDS011;5176;42.622;25.386;2024-01-15T08:15:49;19.17;;;13.23;;
9438;SDS011;5176;42.622;25.386;2024-01-15T08:18:16;20.63;;;12.23;;
9438;SDS011;5176;42.622;25.386;2024-01-15T08:20:44;19.77;;;13.17;;
9438;SDS011;5176;42.622;25.386;2024-01-15T08:23:11;18.77;;;12.83;;
9438;SDS011;5176;42.622;25.386;2024-01-15T08:25:40;18.77;;;13.03;;
9438;SDS011;5176;42.622;25.386;2024-01-15T08:28:08;18.37;;;11.60;;
9438;SDS011;5176;42.622;25.386;2024-01-15T08:30:35;18.60;;;11.93;;
9438;SDS011;5176;42.622;25.386;2024-01-15T08:33:03;21.13;;;11.63;;
9438;SDS011;5176;42.622;25.386;2024-01-15T08:35:31;16.63;;;11.90;;
9438;SDS011;5176;42.622;25.386;2024-01-15T08:37:59;19.43;;;13.30;;
9438;SDS011;5176;42.622;25.386;2024-01-15T08:40:26;24.67;;;15.57;;
9438;SDS011;5176;42.622;25.386;2024-01-15T08:42:55;25.30;;;17.37;;
9438;SDS011;5176;42.622;25.386;2024-01-15T08:45:22;29.97;;;16.60;;
9438;SDS011;5176;42.622;25.386;2024-01-15T08:47:50;26.27;;;17.60;;
9438;SDS011;5176;42.622;25.386;2024-01-15T08:50:17;26.13;;;16.20;;
9438;SDS011;5176;42.622;25.386;2024-01-15T08:52:45;28.93;;;18.50;;
9438;SDS011;5176;42.622;25.386;2024-01-15T08:55:13;32.63;;;16.33;;
9438;SDS011;5176;42.622;25.386;2024-01-15T08:57:40;24.20;;;15.57;;
9438;SDS011;5176;42.622;25.386;2024-01-15T09:00:10;21.47;;;14.67;;
9438;SDS011;5176;42.622;25.386;2024-01-15T09:02:39;27.53;;;17.37;;
9438;SDS011;5176;42.622;25.386;2024-01-15T09:05:07;28.70;;;18.70;;
9438;SDS011;5176;42.622;25.386;2024-01-15T09:07:34;32.80;;;18.33;;
9438;SDS011;5176;42.622;25.386;2024-01-15T09:10:02;28.93;;;17.17;;
9438;SDS011;5176;42.622;25.386;2024-01-15T09:12:30;25.83;;;16.53;;
9438;SDS011;5176;42.622;25.386;2024-01-15T09:14:57;26.47;;;13.57;;
9438;SDS011;5176;42.622;25.386;2024-01-15T09:17:26;22.10;;;13.33;;
9438;SDS011;5176;42.622;25.386;2024-01-15T09:19:54;22.30;;;14.03;;
9438;SDS011;5176;42.622;25.386;2024-01-15T09:22:21;19.53;;;12.73;;
9438;SDS011;5176;42.622;25.386;2024-01-15T09:24:49;20.73;;;11.67;;
9438;SDS011;5176;42.622;25.386;2024-01-15T09:27:16;15.97;;;11.03;;
9438;SDS011;5176;42.622;25.386;2024-01-15T09:29:44;19.33;;;10.67;;
9438;SDS011;5176;42.622;25.386;2024-01-15T09:32:12;15.57;;;10.17;;
9438;SDS011;5176;42.622;25.386;2024-01-15T09:34:42;15.67;;;9.97;;
9438;SDS011;5176;42.622;25.386;2024-01-15T09:37:10;16.00;;;10.37;;
9438;SDS011;5176;42.622;25.386;2024-01-15T09:39:38;15.30;;;9.97;;
9438;SDS011;5176;42.622;25.386;2024-01-15T09:42:05;14.57;;;10.57;;
9438;SDS011;5176;42.622;25.386;2024-01-15T09:44:33;18.50;;;12.37;;
9438;SDS011;5176;42.622;25.386;2024-01-15T09:47:02;24.07;;;11.97;;
9438;SDS011;5176;42.622;25.386;2024-01-15T09:49:30;16.60;;;10.93;;
9438;SDS011;5176;42.622;25.386;2024-01-15T09:51:59;18.40;;;11.63;;
9438;SDS011;5176;42.622;25.386;2024-01-15T09:54:28;17.50;;;11.47;;
9438;SDS011;5176;42.622;25.386;2024-01-15T09:56:55;17.53;;;11.07;;
9438;SDS011;5176;42.622;25.386;2024-01-15T09:59:23;16.47;;;10.00;;
9438;SDS011;5176;42.622;25.386;2024-01-15T10:01:52;18.63;;;9.67;;
9438;SDS011;5176;42.622;25.386;2024-01-15T10:04:22;15.07;;;9.67;;
9438;SDS011;5176;42.622;25.386;2024-01-15T10:06:50;13.63;;;8.67;;
9438;SDS011;5176;42.622;25.386;2024-01-15T10:09:20;17.50;;;10.20;;
9438;SDS011;5176;42.622;25.386;2024-01-15T10:11:48;15.53;;;10.20;;
9438;SDS011;5176;42.622;25.386;2024-01-15T10:14:16;21.50;;;11.83;;
9438;SDS011;5176;42.622;25.386;2024-01-15T10:16:43;20.77;;;11.40;;
9438;SDS011;5176;42.622;25.386;2024-01-15T10:19:11;17.47;;;11.80;;
9438;SDS011;5176;42.622;25.386;2024-01-15T10:21:38;17.73;;;10.83;;
9438;SDS011;5176;42.622;25.386;2024-01-15T10:24:06;19.83;;;12.43;;
9438;SDS011;5176;42.622;25.386;2024-01-15T10:26:35;22.00;;;13.30;;
9438;SDS011;5176;42.622;25.386;2024-01-15T10:29:03;22.60;;;14.30;;
9438;SDS011;5176;42.622;25.386;2024-01-15T10:31:30;23.90;;;14.87;;
9438;SDS011;5176;42.622;25.386;2024-01-15T10:34:09;25.53;;;16.67;;
9438;SDS011;5176;42.622;25.386;2024-01-15T10:36:40;30.77;;;14.70;;
9438;SDS011;5176;42.622;25.386;2024-01-15T10:39:08;18.63;;;12.17;;
9438;SDS011;5176;42.622;25.386;2024-01-15T10:41:38;18.00;;;12.47;;
9438;SDS011;5176;42.622;25.386;2024-01-15T10:44:06;22.37;;;14.13;;
9438;SDS011;5176;42.622;25.386;2024-01-15T10:46:34;24.00;;;16.37;;
9438;SDS011;5176;42.622;25.386;2024-01-15T10:49:02;35.07;;;21.77;;
9438;SDS011;5176;42.622;25.386;2024-01-15T10:51:30;32.20;;;19.47;;
9438;SDS011;5176;42.622;25.386;2024-01-15T10:53:58;24.33;;;16.43;;
9438;SDS011;5176;42.622;25.386;2024-01-15T10:56:28;17.53;;;12.80;;
9438;SDS011;5176;42.622;25.386;2024-01-15T10:58:59;23.00;;;14.03;;
9438;SDS011;5176;42.622;25.386;2024-01-15T11:01:28;26.07;;;15.70;;
9438;SDS011;5176;42.622;25.386;2024-01-15T11:03:55;26.87;;;18.80;;
9438;SDS011;5176;42.622;25.386;2024-01-15T11:06:24;19.30;;;13.50;;
9438;SDS011;5176;42.622;25.386;2024-01-15T11:08:52;16.03;;;11.57;;
9438;SDS011;5176;42.622;25.386;2024-01-15T11:11:19;16.00;;;11.63;;
9438;SDS011;5176;42.622;25.386;2024-01-15T11:13:48;20.17;;;9.80;;
9438;SDS011;5176;42.622;25.386;2024-01-15T11:16:19;14.60;;;9.83;;
9438;SDS011;5176;42.622;25.386;2024-01-15T11:21:31;17.97;;;10.77;;
9438;SDS011;5176;42.622;25.386;2024-01-15T11:23:59;18.63;;;10.10;;
9438;SDS011;5176;42.622;25.386;2024-01-15T11:26:31;13.90;;;9.50;;
9438;SDS011;5176;42.622;25.386;2024-01-15T11:29:02;20.90;;;14.13;;
9438;SDS011;5176;42.622;25.386;2024-01-15T11:37:27;17.70;;;10.27;;
9438;SDS011;5176;42.622;25.386;2024-01-15T11:39:56;18.67;;;11.10;;
9438;SDS011;5176;42.622;25.386;2024-01-15T11:42:29;13.33;;;9.80;;
9438;SDS011;5176;42.622;25.386;2024-01-15T11:44:57;14.37;;;9.40;;
9438;SDS011;5176;42.622;25.386;2024-01-15T11:50:33;15.57;;;9.43;;
9438;SDS011;5176;42.622;25.386;2024-01-15T11:53:02;16.60;;;10.63;;
9438;SDS011;5176;42.622;25.386;2024-01-15T11:55:33;17.57;;;10.87;;
9438;SDS011;5176;42.622;25.386;2024-01-15T11:58:02;13.20;;;9.20;;
9438;SDS011;5176;42.622;25.386;2024-01-15T12:00:33;16.07;;;9.17;;
9438;SDS011;5176;42.622;25.386;2024-01-15T12:03:01;13.53;;;9.07;;
9438;SDS011;5176;42.622;25.386;2024-01-15T12:05:31;19.30;;;10.57;;
9438;SDS011;5176;42.622;25.386;2024-01-15T12:08:03;13.77;;;10.03;;
9438;SDS011;5176;42.622;25.386;2024-01-15T12:10:35;17.20;;;10.13;;
9438;SDS011;5176;42.622;25.386;2024-01-15T12:13:04;16.80;;;10.17;;
9438;SDS011;5176;42.622;25.386;2024-01-15T12:15:36;16.40;;;11.27;;
9438;SDS011;5176;42.622;25.386;2024-01-15T12:18:04;13.63;;;8.80;;
9438;SDS011;5176;42.622;25.386;2024-01-15T12:20:31;13.17;;;8.60;;
9438;SDS011;5176;42.622;25.386;2024-01-15T12:23:01;12.43;;;8.83;;
9438;SDS011;5176;42.622;25.386;2024-01-15T12:25:30;18.53;;;9.73;;
9438;SDS011;5176;42.622;25.386;2024-01-15T12:27:58;13.83;;;9.07;;
9438;SDS011;5176;42.622;25.386;2024-01-15T12:30:26;17.60;;;10.80;;
9438;SDS011;5176;42.622;25.386;2024-01-15T12:32:54;26.23;;;14.40;;
9438;SDS011;5176;42.622;25.386;2024-01-15T12:35:23;20.53;;;13.23;;
9438;SDS011;5176;42.622;25.386;2024-01-15T12:37:53;25.00;;;13.93;;
9438;SDS011;5176;42.622;25.386;2024-01-15T12:40:21;29.97;;;20.70;;
9438;SDS011;5176;42.622;25.386;2024-01-15T12:42:50;26.03;;;16.27;;
9438;SDS011;5176;42.622;25.386;2024-01-15T12:45:18;18.40;;;13.10;;
9438;SDS011;5176;42.622;25.386;2024-01-15T12:47:45;52.93;;;34.87;;
9438;SDS011;5176;42.622;25.386;2024-01-15T12:50:13;19.97;;;13.43;;
9438;SDS011;5176;42.622;25.386;2024-01-15T12:52:41;24.27;;;14.97;;
9438;SDS011;5176;42.622;25.386;2024-01-15T12:55:10;22.37;;;15.00;;
9438;SDS011;5176;42.622;25.386;2024-01-15T12:57:37;27.20;;;19.00;;
9438;SDS011;5176;42.622;25.386;2024-01-15T13:00:05;38.03;;;24.40;;
9438;SDS011;5176;42.622;25.386;2024-01-15T13:02:37;35.00;;;22.30;;
9438;SDS011;5176;42.622;25.386;2024-01-15T13:05:07;28.40;;;18.83;;
9438;SDS011;5176;42.622;25.386;2024-01-15T13:07:36;33.13;;;21.73;;
9438;SDS011;5176;42.622;25.386;2024-01-15T13:10:04;33.77;;;21.80;;
9438;SDS011;5176;42.622;25.386;2024-01-15T13:12:33;31.33;;;19.23;;
9438;SDS011;5176;42.622;25.386;2024-01-15T13:15:01;34.97;;;19.97;;
9438;SDS011;5176;42.622;25.386;2024-01-15T13:17:30;41.33;;;25.00;;
9438;SDS011;5176;42.622;25.386;2024-01-15T13:19:57;32.77;;;21.27;;
9438;SDS011;5176;42.622;25.386;2024-01-15T13:22:25;23.10;;;15.87;;
9438;SDS011;5176;42.622;25.386;2024-01-15T13:24:57;19.30;;;13.17;;
9438;SDS011;5176;42.622;25.386;2024-01-15T13:27:24;40.40;;;20.43;;
9438;SDS011;5176;42.622;25.386;2024-01-15T13:29:53;41.03;;;23.53;;
9438;SDS011;5176;42.622;25.386;2024-01-15T13:32:22;31.93;;;18.83;;
9438;SDS011;5176;42.622;25.386;2024-01-15T13:34:52;24.53;;;16.20;;
9438;SDS011;5176;42.622;25.386;2024-01-15T13:37:19;28.93;;;18.10;;
9438;SDS011;5176;42.622;25.386;2024-01-15T13:39:49;27.13;;;16.83;;
9438;SDS011;5176;42.622;25.386;2024-01-15T13:42:17;19.90;;;12.90;;
9438;SDS011;5176;42.622;25.386;2024-01-15T13:44:46;24.90;;;14.33;;
9438;SDS011;5176;42.622;25.386;2024-01-15T13:47:14;21.77;;;14.00;;
9438;SDS011;5176;42.622;25.386;2024-01-15T13:49:42;25.30;;;16.80;;
9438;SDS011;5176;42.622;25.386;2024-01-15T13:52:09;35.07;;;20.63;;
9438;SDS011;5176;42.622;25.386;2024-01-15T13:54:38;33.00;;;21.83;;
9438;SDS011;5176;42.622;25.386;2024-01-15T13:57:06;34.17;;;20.60;;
9438;SDS011;5176;42.622;25.386;2024-01-15T13:59:33;33.53;;;20.30;;
9438;SDS011;5176;42.622;25.386;2024-01-15T14:02:01;32.17;;;20.77;;
9438;SDS011;5176;42.622;25.386;2024-01-15T14:04:30;28.57;;;19.07;;
9438;SDS011;5176;42.622;25.386;2024-01-15T14:06:57;28.13;;;18.10;;
9438;SDS011;5176;42.622;25.386;2024-01-15T14:09:24;25.43;;;17.67;;
9438;SDS011;5176;42.622;25.386;2024-01-15T14:11:52;31.20;;;18.57;;
9438;SDS011;5176;42.622;25.386;2024-01-15T14:14:19;24.73;;;18.60;;
9438;SDS011;5176;42.622;25.386;2024-01-15T14:16:47;32.53;;;21.00;;
9438;SDS011;5176;42.622;25.386;2024-01-15T14:19:14;47.23;;;21.80;;
9438;SDS011;5176;42.622;25.386;2024-01-15T14:21:43;40.73;;;24.23;;
9438;SDS011;5176;42.622;25.386;2024-01-15T14:24:11;33.60;;;22.03;;
9438;SDS011;5176;42.622;25.386;2024-01-15T14:26:38;40.53;;;24.80;;
9438;SDS011;5176;42.622;25.386;2024-01-15T14:29:07;43.93;;;24.87;;
9438;SDS011;5176;42.622;25.386;2024-01-15T14:31:34;41.67;;;26.03;;
9438;SDS011;5176;42.622;25.386;2024-01-15T14:34:02;45.47;;;22.40;;
9438;SDS011;5176;42.622;25.386;2024-01-15T14:36:29;36.00;;;23.63;;
9438;SDS011;5176;42.622;25.386;2024-01-15T14:38:58;37.77;;;23.40;;
9438;SDS011;5176;42.622;25.386;2024-01-15T14:41:25;37.00;;;23.53;;
9438;SDS011;5176;42.622;25.386;2024-01-15T14:43:53;35.70;;;23.53;;
9438;SDS011;5176;42.622;25.386;2024-01-15T14:46:22;33.83;;;21.40;;
9438;SDS011;5176;42.622;25.386;2024-01-15T14:48:50;34.73;;;21.60;;
9438;SDS011;5176;42.622;25.386;2024-01-15T14:51:17;34.27;;;21.40;;
9438;SDS011;5176;42.622;25.386;2024-01-15T14:53:45;30.17;;;19.00;;